createdAt,value
2023-05-16T00:01:03.718Z,3.00
2023-05-16T00:03:31.209Z,2.33
2023-05-16T00:05:58.256Z,1.93
2023-05-16T00:08:25.047Z,3.13
2023-05-16T00:10:51.743Z,2.40
2023-05-16T00:13:22.473Z,4.83
2023-05-16T00:15:49.826Z,2.70
2023-05-16T00:18:39.815Z,2.70
2023-05-16T00:40:53.287Z,3.20
2023-05-16T00:43:20.096Z,3.00
2023-05-16T00:45:46.900Z,3.50
2023-05-16T00:48:14.520Z,4.87
2023-05-16T00:50:41.369Z,2.73
2023-05-16T00:53:08.018Z,3.23
2023-05-16T00:55:34.820Z,4.57
2023-05-16T00:58:01.754Z,4.03
2023-05-16T01:00:28.670Z,3.90
2023-05-16T01:02:56.066Z,6.60
2023-05-16T01:05:22.804Z,5.00
2023-05-16T01:07:49.541Z,4.13
2023-05-16T01:10:16.575Z,6.93
2023-05-16T01:12:57.189Z,9.50
2023-05-16T01:16:02.990Z,9.57
2023-05-16T01:19:02.753Z,8.90
2023-05-16T01:21:51.422Z,9.60
2023-05-16T01:24:21.497Z,10.33
2023-05-16T01:26:49.055Z,10.97
2023-05-16T01:29:16.103Z,9.70
2023-05-16T01:31:42.903Z,10.53
2023-05-16T01:34:09.552Z,10.20
2023-05-16T01:36:38.872Z,9.70
2023-05-16T01:39:22.440Z,6.87
2023-05-16T01:42:04.610Z,7.40
2023-05-16T01:44:36.844Z,7.07
2023-05-16T01:47:08.554Z,7.80
2023-05-16T01:49:37.687Z,8.30
2023-05-16T01:52:10.356Z,10.70
2023-05-16T01:54:38.945Z,8.53
2023-05-16T01:57:08.415Z,13.03
2023-05-16T01:59:35.496Z,11.13
2023-05-16T02:02:02.797Z,7.47
2023-05-16T02:04:29.614Z,10.13
2023-05-16T02:06:56.693Z,8.77
2023-05-16T02:09:23.398Z,9.73
2023-05-16T02:11:50.362Z,11.27
2023-05-16T02:14:17.065Z,12.33
2023-05-16T02:16:43.850Z,9.70
2023-05-16T02:19:10.850Z,12.67
2023-05-16T02:21:37.611Z,9.93
2023-05-16T02:24:05.149Z,12.50
2023-05-16T02:26:32.092Z,12.03
2023-05-16T02:28:58.882Z,10.77
2023-05-16T02:31:29.981Z,6.90
2023-05-16T02:33:58.635Z,8.20
2023-05-16T02:36:25.659Z,9.20
2023-05-16T02:38:52.750Z,9.13
2023-05-16T02:41:19.722Z,7.97
2023-05-16T02:43:47.277Z,12.17
2023-05-16T02:46:28.097Z,9.50
2023-05-16T02:48:55.514Z,7.90
2023-05-16T02:51:24.572Z,9.80
2023-05-16T02:53:52.364Z,7.40
2023-05-16T02:56:19.639Z,11.13
2023-05-16T02:58:50.304Z,7.33
2023-05-16T03:01:17.723Z,12.40
2023-05-16T03:03:45.022Z,8.73
2023-05-16T03:06:11.982Z,9.60
2023-05-16T03:08:38.826Z,11.07
2023-05-16T03:11:05.852Z,11.87
2023-05-16T03:13:33.288Z,12.53
2023-05-16T03:16:01.062Z,9.83
2023-05-16T03:18:27.840Z,12.40
2023-05-16T03:20:55.123Z,13.57
2023-05-16T03:23:21.876Z,17.93
2023-05-16T03:25:48.842Z,12.97
2023-05-16T03:28:17.020Z,12.17
2023-05-16T03:30:43.927Z,11.93
2023-05-16T03:33:10.856Z,10.87
2023-05-16T03:35:37.743Z,12.13
2023-05-16T03:38:04.378Z,12.70
2023-05-16T03:40:31.139Z,7.57
2023-05-16T03:42:57.925Z,11.60
2023-05-16T03:45:24.760Z,9.53
2023-05-16T03:47:51.783Z,14.20
2023-05-16T03:50:18.736Z,8.17
2023-05-16T03:52:45.569Z,9.97
2023-05-16T03:55:14.556Z,12.73
2023-05-16T03:57:43.130Z,9.27
2023-05-16T04:00:11.511Z,16.00
2023-05-16T04:02:41.024Z,11.80
2023-05-16T04:05:09.236Z,7.90
2023-05-16T04:07:36.780Z,11.27
2023-05-16T04:10:04.557Z,10.77
2023-05-16T04:12:31.305Z,10.93
2023-05-16T04:15:00.813Z,9.80
2023-05-16T04:17:27.691Z,10.93
2023-05-16T04:19:54.532Z,8.57
2023-05-16T04:22:23.073Z,9.30
2023-05-16T04:24:50.253Z,10.37
2023-05-16T04:27:17.279Z,9.87
2023-05-16T04:29:44.831Z,12.87
2023-05-16T04:32:12.609Z,11.30
2023-05-16T04:34:40.239Z,14.27
2023-05-16T04:37:08.714Z,9.83
2023-05-16T04:39:36.364Z,14.00
2023-05-16T04:42:03.922Z,11.80
2023-05-16T04:44:30.812Z,8.10
2023-05-16T04:46:57.860Z,9.37
2023-05-16T04:49:24.680Z,8.90
2023-05-16T04:51:51.606Z,14.43
2023-05-16T04:54:18.597Z,11.30
2023-05-16T04:56:45.282Z,11.50
2023-05-16T04:59:12.011Z,9.90
2023-05-16T05:01:39.850Z,15.87
2023-05-16T05:04:06.751Z,15.03
2023-05-16T05:06:33.631Z,10.37
2023-05-16T05:09:00.522Z,10.07
2023-05-16T05:11:28.124Z,13.40
2023-05-16T05:13:55.073Z,10.53
2023-05-16T05:16:23.319Z,7.63
2023-05-16T05:18:51.101Z,14.90
2023-05-16T05:21:18.767Z,5.67
2023-05-16T05:23:49.815Z,8.97
2023-05-16T05:26:17.921Z,10.80
2023-05-16T05:28:53.821Z,9.50
2023-05-16T05:31:24.844Z,10.70
2023-05-16T05:33:51.594Z,11.10
2023-05-16T05:36:18.288Z,12.27
2023-05-16T05:38:44.953Z,11.67
2023-05-16T05:41:12.149Z,10.73
2023-05-16T05:43:39.020Z,8.43
2023-05-16T05:46:06.872Z,10.03
2023-05-16T05:48:33.718Z,12.97
2023-05-16T05:51:00.408Z,11.67
2023-05-16T05:53:27.455Z,13.63
2023-05-16T05:55:54.163Z,6.70
2023-05-16T05:58:21.901Z,6.87
2023-05-16T06:00:48.675Z,6.87
2023-05-16T06:03:15.500Z,9.47
2023-05-16T06:05:42.501Z,6.13
2023-05-16T06:08:09.222Z,6.17
2023-05-16T06:10:36.005Z,9.17
2023-05-16T06:13:02.667Z,8.90
2023-05-16T06:15:29.659Z,10.77
2023-05-16T06:17:56.617Z,11.07
2023-05-16T06:20:23.479Z,12.27
2023-05-16T06:22:50.163Z,9.03
2023-05-16T06:25:16.917Z,7.67
2023-05-16T06:27:43.601Z,9.73
2023-05-16T06:30:10.661Z,9.03
2023-05-16T06:32:37.550Z,9.27
2023-05-16T06:35:05.021Z,10.13
2023-05-16T06:37:31.734Z,10.07
2023-05-16T06:39:59.392Z,11.57
2023-05-16T06:42:26.277Z,4.60
2023-05-16T06:44:52.968Z,8.37
2023-05-16T06:47:21.050Z,9.83
2023-05-16T06:49:48.122Z,6.87
2023-05-16T06:52:14.859Z,6.83
2023-05-16T06:54:41.550Z,6.40
2023-05-16T06:57:08.873Z,6.53
2023-05-16T06:59:36.385Z,8.70
2023-05-16T07:02:03.155Z,8.70
2023-05-16T07:04:29.902Z,11.40
2023-05-16T07:06:56.806Z,7.60
2023-05-16T07:09:23.605Z,7.97
2023-05-16T07:11:50.348Z,6.03
2023-05-16T07:14:17.292Z,4.30
2023-05-16T07:16:44.435Z,12.10
2023-05-16T07:19:11.829Z,4.37
2023-05-16T07:21:38.758Z,8.43
2023-05-16T07:24:06.206Z,4.33
2023-05-16T07:26:32.937Z,5.80
2023-05-16T07:28:59.773Z,6.03
2023-05-16T07:31:26.752Z,7.20
2023-05-16T07:33:53.960Z,8.17
2023-05-16T07:36:21.459Z,8.07
2023-05-16T07:38:48.342Z,8.70
2023-05-16T07:41:15.166Z,4.87
2023-05-16T07:43:42.406Z,4.03
2023-05-16T07:46:09.153Z,6.50
2023-05-16T07:48:36.236Z,3.83
2023-05-16T07:51:03.040Z,4.13
2023-05-16T07:53:29.751Z,5.37
2023-05-16T07:55:56.809Z,6.77
2023-05-16T07:58:23.609Z,7.00
2023-05-16T08:00:50.892Z,7.40
2023-05-16T08:03:17.849Z,7.90
2023-05-16T08:05:45.381Z,4.10
2023-05-16T08:08:12.249Z,4.23
2023-05-16T08:10:39.095Z,6.70
2023-05-16T08:13:05.860Z,5.13
2023-05-16T08:15:32.645Z,6.53
2023-05-16T08:17:59.978Z,5.33
2023-05-16T08:20:27.017Z,7.07
2023-05-16T08:22:54.348Z,6.27
2023-05-16T08:25:21.528Z,2.90
2023-05-16T08:27:50.248Z,5.10
2023-05-16T08:30:17.296Z,4.37
2023-05-16T08:32:44.213Z,4.43
2023-05-16T08:35:11.515Z,3.60
2023-05-16T08:37:38.305Z,5.00
2023-05-16T08:40:08.536Z,10.10
2023-05-16T08:42:35.880Z,5.67
2023-05-16T08:45:02.982Z,5.80
2023-05-16T08:47:32.320Z,3.77
2023-05-16T08:50:00.165Z,3.93
2023-05-16T08:52:31.445Z,4.13
2023-05-16T08:55:10.383Z,6.40
2023-05-16T08:57:38.746Z,2.37
2023-05-16T09:00:13.261Z,4.43
2023-05-16T09:02:41.602Z,6.13
2023-05-16T09:05:10.202Z,2.43
2023-05-16T09:07:37.708Z,2.53
2023-05-16T09:10:09.952Z,5.53
2023-05-16T09:12:37.214Z,4.63
2023-05-16T09:15:06.683Z,6.63
2023-05-16T09:17:39.864Z,3.87
2023-05-16T09:20:18.884Z,2.87
2023-05-16T09:23:03.771Z,3.23
2023-05-16T09:25:32.334Z,2.93
2023-05-16T09:28:02.110Z,3.80
2023-05-16T09:30:31.865Z,3.93
2023-05-16T09:32:59.641Z,4.57
2023-05-16T09:37:56.991Z,2.03
2023-05-16T09:40:24.280Z,3.33
2023-05-16T09:43:05.845Z,3.70
2023-05-16T09:45:34.392Z,5.97
2023-05-16T09:48:13.387Z,4.70
2023-05-16T09:50:42.418Z,2.97
2023-05-16T09:53:13.997Z,5.70
2023-05-16T09:55:43.615Z,3.90
2023-05-16T09:58:10.373Z,3.90
2023-05-16T10:00:38.321Z,9.00
2023-05-16T10:03:07.421Z,7.47
2023-05-16T10:05:35.053Z,4.60
2023-05-16T10:08:03.153Z,6.13
2023-05-16T10:10:30.474Z,3.37
2023-05-16T10:12:59.388Z,5.47
2023-05-16T10:15:26.706Z,4.27
2023-05-16T10:17:55.281Z,6.93
2023-05-16T10:20:23.192Z,7.50
2023-05-16T10:22:51.079Z,7.83
2023-05-16T10:25:17.775Z,3.97
2023-05-16T10:27:45.158Z,3.60
2023-05-16T10:30:12.397Z,3.57
2023-05-16T10:32:42.834Z,7.80
2023-05-16T10:35:13.160Z,8.23
2023-05-16T10:37:41.701Z,4.87
2023-05-16T10:40:09.921Z,7.53
2023-05-16T10:42:36.656Z,2.90
2023-05-16T10:45:16.636Z,6.13
2023-05-16T10:47:52.481Z,3.33
2023-05-16T10:50:38.884Z,3.07
2023-05-16T10:53:32.667Z,5.73
2023-05-16T10:55:59.375Z,7.43
2023-05-16T10:58:35.681Z,2.70
2023-05-16T11:01:19.991Z,1.67
2023-05-16T11:03:59.274Z,2.90
2023-05-16T11:06:42.371Z,2.57
2023-05-16T11:09:22.410Z,4.13
2023-05-16T11:11:52.214Z,4.33
2023-05-16T11:14:25.960Z,3.30
2023-05-16T11:17:17.022Z,3.77
2023-05-16T11:19:59.672Z,2.67
2023-05-16T11:22:27.555Z,2.03
2023-05-16T11:24:58.753Z,2.27
2023-05-16T11:27:45.998Z,2.00
2023-05-16T11:30:15.670Z,4.97
2023-05-16T11:32:44.253Z,2.53
2023-05-16T11:35:14.994Z,3.23
2023-05-16T11:37:42.709Z,2.33
2023-05-16T11:40:12.430Z,3.33
2023-05-16T11:42:44.758Z,1.53
2023-05-16T11:45:19.929Z,1.93
2023-05-16T11:47:48.386Z,3.33
2023-05-16T11:50:17.429Z,3.37
2023-05-16T11:52:48.428Z,4.53
2023-05-16T11:55:28.174Z,2.00
2023-05-16T11:58:00.082Z,4.00
2023-05-16T12:00:27.725Z,2.87
2023-05-16T12:02:55.689Z,3.57
2023-05-16T12:05:27.458Z,4.03
2023-05-16T12:07:54.876Z,2.00
2023-05-16T12:10:21.933Z,1.97
2023-05-16T12:12:52.750Z,1.10
2023-05-16T12:15:20.033Z,1.17
2023-05-16T12:17:47.840Z,4.20
2023-05-16T12:20:16.777Z,2.63
2023-05-16T12:22:45.046Z,2.13
2023-05-16T12:25:32.790Z,3.10
2023-05-16T12:28:01.398Z,1.80
2023-05-16T12:30:29.630Z,0.60
2023-05-16T12:33:16.032Z,1.53
2023-05-16T12:35:45.489Z,1.33
2023-05-16T12:38:15.686Z,2.07
2023-05-16T12:40:43.884Z,2.30
2023-05-16T12:43:18.286Z,2.60
2023-05-16T12:45:56.346Z,1.50
2023-05-16T12:48:24.075Z,1.90
2023-05-16T12:50:51.281Z,2.53
2023-05-16T12:53:21.231Z,2.00
2023-05-16T12:55:47.959Z,1.17
2023-05-16T12:58:16.403Z,1.17
2023-05-16T13:00:43.478Z,5.67
2023-05-16T13:03:10.618Z,2.23
2023-05-16T13:05:41.230Z,0.73
2023-05-16T13:08:07.998Z,4.47
2023-05-16T13:10:34.763Z,1.03
2023-05-16T13:13:04.676Z,2.13
2023-05-16T13:15:32.967Z,1.73
2023-05-16T13:17:59.874Z,3.47
2023-05-16T13:20:27.617Z,7.83
2023-05-16T13:22:56.703Z,3.63
2023-05-16T13:25:26.642Z,1.53
2023-05-16T13:27:54.494Z,3.20
2023-05-16T13:30:21.514Z,2.57
2023-05-16T13:32:48.853Z,2.90
2023-05-16T13:35:16.549Z,3.17
2023-05-16T13:37:43.812Z,3.83
2023-05-16T13:40:12.000Z,1.60
2023-05-16T13:42:40.384Z,1.93
2023-05-16T13:45:08.725Z,1.60
2023-05-16T13:47:35.904Z,2.90
2023-05-16T13:50:09.583Z,2.73
2023-05-16T13:52:38.358Z,1.37
2023-05-16T13:55:06.092Z,3.70
2023-05-16T13:57:33.538Z,1.43
2023-05-16T14:02:30.113Z,6.03
2023-05-16T14:04:56.921Z,2.80
2023-05-16T14:07:23.661Z,3.70
2023-05-16T14:09:50.444Z,3.97
2023-05-16T14:12:18.586Z,3.60
2023-05-16T14:14:46.236Z,3.70
2023-05-16T14:17:16.059Z,2.83
2023-05-16T14:19:42.849Z,4.23
2023-05-16T14:22:09.645Z,4.10
2023-05-16T14:24:36.506Z,2.80
2023-05-16T14:27:03.476Z,2.67
2023-05-16T14:29:30.288Z,4.33
2023-05-16T14:31:57.576Z,1.50
2023-05-16T14:34:25.054Z,2.40
2023-05-16T14:36:52.505Z,4.53
2023-05-16T14:39:19.643Z,3.90
2023-05-16T14:41:46.784Z,3.17
2023-05-16T14:44:13.796Z,1.70
2023-05-16T14:46:40.943Z,4.33
2023-05-16T14:49:08.502Z,3.40
2023-05-16T14:51:36.039Z,3.30
2023-05-16T14:54:02.926Z,1.57
2023-05-16T14:56:29.746Z,2.10
2023-05-16T14:58:56.602Z,3.00
2023-05-16T15:01:23.740Z,7.30
2023-05-16T15:03:55.220Z,2.97
2023-05-16T15:06:23.601Z,3.30
2023-05-16T15:08:51.068Z,5.27
2023-05-16T15:11:18.112Z,2.40
2023-05-16T15:13:44.879Z,4.47
2023-05-16T15:16:11.935Z,3.63
2023-05-16T15:18:38.856Z,2.73
2023-05-16T15:21:05.874Z,2.57
2023-05-16T15:23:33.273Z,5.00
2023-05-16T15:26:00.030Z,3.20
2023-05-16T15:28:26.779Z,4.37
2023-05-16T15:30:53.618Z,2.37
2023-05-16T15:33:21.699Z,4.03
2023-05-16T15:35:48.787Z,2.57
2023-05-16T15:38:15.604Z,3.47
2023-05-16T15:40:42.827Z,3.27
2023-05-16T15:43:09.610Z,3.23
2023-05-16T15:45:39.927Z,3.37
2023-05-16T15:48:07.518Z,5.63
2023-05-16T15:50:34.443Z,3.33
2023-05-16T15:53:01.346Z,4.83
2023-05-16T15:55:28.538Z,4.53
2023-05-16T15:57:57.568Z,3.03
2023-05-16T16:00:25.182Z,2.87
2023-05-16T16:02:52.458Z,2.83
2023-05-16T16:05:19.418Z,3.07
2023-05-16T16:07:46.325Z,2.73
2023-05-16T16:10:13.202Z,2.43
2023-05-16T16:12:40.555Z,4.10
2023-05-16T16:15:09.680Z,4.97
2023-05-16T16:17:36.576Z,2.67
2023-05-16T16:20:03.830Z,5.17
2023-05-16T16:22:30.692Z,4.37
2023-05-16T16:24:57.444Z,4.10
2023-05-16T16:27:24.224Z,11.60
2023-05-16T16:29:50.949Z,12.00
2023-05-16T16:32:17.764Z,2.90
2023-05-16T16:34:44.505Z,23.30
2023-05-16T16:37:11.854Z,6.27
2023-05-16T16:39:38.744Z,7.63
2023-05-16T16:42:05.831Z,4.67
2023-05-16T16:44:32.603Z,3.37
2023-05-16T16:46:59.467Z,5.00
2023-05-16T16:49:26.228Z,2.87
2023-05-16T16:51:53.002Z,3.30
2023-05-16T16:54:21.712Z,3.47
2023-05-16T16:56:49.676Z,5.13
2023-05-16T16:59:16.910Z,6.23
2023-05-16T17:01:43.993Z,4.73
2023-05-16T17:04:11.672Z,5.80
2023-05-16T17:06:38.436Z,3.00
2023-05-16T17:09:07.005Z,6.20
2023-05-16T17:11:36.448Z,3.90
2023-05-16T17:14:05.891Z,3.13
2023-05-16T17:16:32.746Z,2.63
2023-05-16T17:19:00.060Z,5.17
2023-05-16T17:21:28.265Z,2.53
2023-05-16T17:23:55.376Z,4.37
2023-05-16T17:26:22.300Z,3.70
2023-05-16T17:28:49.503Z,3.63
2023-05-16T17:31:16.809Z,2.60
2023-05-16T17:33:43.753Z,4.13
2023-05-16T17:36:11.095Z,3.47
2023-05-16T17:38:37.951Z,2.20
2023-05-16T17:41:04.824Z,4.40
2023-05-16T17:43:31.657Z,4.83
2023-05-16T17:45:58.753Z,4.00
2023-05-16T17:48:25.625Z,4.33
2023-05-16T17:50:52.392Z,5.43
2023-05-16T17:53:19.522Z,4.47
2023-05-16T17:55:46.678Z,3.43
2023-05-16T17:58:13.526Z,4.40
2023-05-16T18:00:40.491Z,3.30
2023-05-16T18:03:07.356Z,4.80
2023-05-16T18:05:34.505Z,3.13
2023-05-16T18:08:01.627Z,2.93
2023-05-16T18:10:33.919Z,3.20
2023-05-16T18:13:10.390Z,4.90
2023-05-16T18:15:38.213Z,7.13
2023-05-16T18:18:05.275Z,4.90
2023-05-16T18:20:32.191Z,4.77
2023-05-16T18:22:59.065Z,6.37
2023-05-16T18:25:26.568Z,3.80
2023-05-16T18:27:53.586Z,5.17
2023-05-16T18:30:26.652Z,2.93
2023-05-16T18:32:53.456Z,2.80
2023-05-16T18:35:20.563Z,2.73
2023-05-16T18:37:47.393Z,3.87
2023-05-16T18:40:14.254Z,3.50
2023-05-16T18:42:41.130Z,5.17
2023-05-16T18:45:08.898Z,7.40
2023-05-16T18:47:36.058Z,5.03
2023-05-16T18:50:03.779Z,3.97
2023-05-16T18:52:30.545Z,4.10
2023-05-16T18:54:57.800Z,5.33
2023-05-16T18:57:24.584Z,8.43
2023-05-16T18:59:53.537Z,6.43
2023-05-16T19:02:27.322Z,4.23
2023-05-16T19:05:01.675Z,6.47
2023-05-16T19:07:28.708Z,6.13
2023-05-16T19:09:55.497Z,4.30
2023-05-16T19:12:22.999Z,3.63
2023-05-16T19:14:49.780Z,3.93
2023-05-16T19:17:16.549Z,4.20
2023-05-16T19:19:43.454Z,5.63
2023-05-16T19:22:10.282Z,6.43
2023-05-16T19:24:37.069Z,8.00
2023-05-16T19:27:04.372Z,4.03
2023-05-16T19:29:31.258Z,5.93
2023-05-16T19:31:58.062Z,4.97
2023-05-16T19:34:26.864Z,5.13
2023-05-16T19:36:53.709Z,5.50
2023-05-16T19:39:20.539Z,6.60
2023-05-16T19:41:51.708Z,4.77
2023-05-16T19:44:19.121Z,6.77
2023-05-16T19:46:46.459Z,3.77
2023-05-16T19:49:13.266Z,4.63
2023-05-16T19:51:42.165Z,3.90
2023-05-16T19:54:09.199Z,6.43
2023-05-16T19:56:35.937Z,4.37
2023-05-16T19:59:08.974Z,4.97
2023-05-16T20:01:35.889Z,5.47
2023-05-16T20:04:02.760Z,6.77
2023-05-16T20:06:29.660Z,5.17
2023-05-16T20:08:56.366Z,4.87
2023-05-16T20:11:23.354Z,3.27
2023-05-16T20:13:50.062Z,6.43
2023-05-16T20:16:19.810Z,4.10
2023-05-16T20:18:47.042Z,5.20
2023-05-16T20:21:14.321Z,5.93
2023-05-16T20:23:41.294Z,3.60
2023-05-16T20:26:08.092Z,5.00
2023-05-16T20:28:34.848Z,4.07
2023-05-16T20:31:01.601Z,4.20
2023-05-16T20:33:28.453Z,4.70
2023-05-16T20:35:55.241Z,4.53
2023-05-16T20:38:22.031Z,4.30
2023-05-16T20:40:48.871Z,4.47
2023-05-16T20:43:15.733Z,3.70
2023-05-16T20:45:42.628Z,3.07
2023-05-16T20:48:09.459Z,5.73
2023-05-16T20:50:36.465Z,3.70
2023-05-16T20:53:03.654Z,2.60
2023-05-16T20:55:31.400Z,4.70
2023-05-16T20:57:58.185Z,2.37
2023-05-16T21:00:24.957Z,2.87
2023-05-16T21:02:53.828Z,4.50
2023-05-16T21:05:25.698Z,3.30
2023-05-16T21:08:01.939Z,3.83
2023-05-16T21:10:28.711Z,5.93
2023-05-16T21:12:55.440Z,4.50
2023-05-16T21:15:23.456Z,5.23
2023-05-16T21:17:50.573Z,3.10
2023-05-16T21:20:17.515Z,6.93
2023-05-16T21:22:44.254Z,4.53
2023-05-16T21:25:11.002Z,2.43
2023-05-16T21:27:37.746Z,4.07
2023-05-16T21:30:04.795Z,4.67
2023-05-16T21:32:32.647Z,3.77
2023-05-16T21:35:01.282Z,3.40
2023-05-16T21:37:28.116Z,6.03
2023-05-16T21:39:55.064Z,2.93
2023-05-16T21:42:21.824Z,3.50
2023-05-16T21:44:48.607Z,15.20
2023-05-16T21:47:15.354Z,7.47
2023-05-16T21:49:42.128Z,3.53
2023-05-16T21:52:08.927Z,3.77
2023-05-16T21:54:35.810Z,2.80
2023-05-16T21:57:02.635Z,2.93
2023-05-16T21:59:29.449Z,3.40
2023-05-16T22:01:56.118Z,5.40
2023-05-16T22:04:23.923Z,3.30
2023-05-16T22:06:51.163Z,3.37
2023-05-16T22:09:17.923Z,5.03
2023-05-16T22:11:44.639Z,4.73
2023-05-16T22:14:11.393Z,3.60
2023-05-16T22:16:38.315Z,3.17
2023-05-16T22:19:05.122Z,2.60
2023-05-16T22:21:31.872Z,2.60
2023-05-16T22:23:58.601Z,4.20
2023-05-16T22:26:26.644Z,4.67
2023-05-16T22:28:53.382Z,2.73
2023-05-16T22:31:20.101Z,3.30
2023-05-16T22:33:46.978Z,2.90
2023-05-16T22:36:13.789Z,3.50
2023-05-16T22:38:40.491Z,4.17
2023-05-16T22:41:07.511Z,4.53
2023-05-16T22:43:34.202Z,2.33
2023-05-16T22:46:03.001Z,2.63
2023-05-16T22:48:30.166Z,2.13
2023-05-16T22:50:57.656Z,2.40
2023-05-16T22:53:24.503Z,2.77
2023-05-16T22:55:51.402Z,4.73
2023-05-16T22:58:18.152Z,2.20
2023-05-16T23:00:44.932Z,1.80
2023-05-16T23:03:11.786Z,3.47
2023-05-16T23:05:38.826Z,5.90
2023-05-16T23:08:06.281Z,3.70
2023-05-16T23:10:33.057Z,3.30
2023-05-16T23:12:59.818Z,3.50
2023-05-16T23:15:26.792Z,4.77
2023-05-16T23:17:53.887Z,4.97
2023-05-16T23:20:20.770Z,2.87
2023-05-16T23:22:47.478Z,6.00
2023-05-16T23:25:14.266Z,4.03
2023-05-16T23:27:41.000Z,3.80
2023-05-16T23:30:09.399Z,8.30
2023-05-16T23:32:37.008Z,3.43
2023-05-16T23:35:04.077Z,5.90
2023-05-16T23:37:31.236Z,6.43
2023-05-16T23:39:58.142Z,8.03
2023-05-16T23:42:24.912Z,8.43
2023-05-16T23:44:51.662Z,5.17
2023-05-16T23:47:18.502Z,3.67
2023-05-16T23:49:45.301Z,8.17
2023-05-16T23:52:12.120Z,6.03
2023-05-16T23:54:38.850Z,4.27
2023-05-16T23:57:06.031Z,7.20
2023-05-16T23:59:32.755Z,8.50
